createdAt,value
2023-03-10T00:04:37.176Z,93961.28
2023-03-10T00:09:38.646Z,93937.78
2023-03-10T00:14:40.177Z,93943.06
2023-03-10T00:19:41.615Z,93944.06
2023-03-10T00:24:43.166Z,93939.84
2023-03-10T00:29:44.642Z,93930.78
2023-03-10T00:34:46.150Z,93919.88
2023-03-10T00:39:51.648Z,93910.22
2023-03-10T00:44:53.194Z,93909.97
2023-03-10T00:49:54.753Z,93901.50
2023-03-10T00:54:56.350Z,93880.66
2023-03-10T00:59:57.857Z,93892.41
2023-03-10T01:04:59.299Z,93890.25
2023-03-10T01:10:00.757Z,93898.03
2023-03-10T01:15:02.424Z,93909.13
2023-03-10T01:20:05.205Z,93908.84
2023-03-10T01:25:07.229Z,93914.03
2023-03-10T01:30:10.002Z,93905.66
2023-03-10T01:35:12.020Z,93905.13
2023-03-10T01:40:15.456Z,93891.81
2023-03-10T01:45:16.908Z,93903.19
2023-03-10T01:50:19.550Z,93912.31
2023-03-10T01:55:29.464Z,93918.59
2023-03-10T02:00:31.082Z,93913.81
2023-03-10T02:05:33.786Z,93927.94
2023-03-10T02:10:36.272Z,93922.00
2023-03-10T02:15:39.057Z,93937.13
2023-03-10T02:21:09.833Z,93931.59
2023-03-10T02:26:31.616Z,93935.84
2023-03-10T02:31:33.765Z,93924.31
2023-03-10T02:36:35.657Z,93924.91
2023-03-10T02:41:40.036Z,93916.16
2023-03-10T02:46:45.676Z,93905.91
2023-03-10T02:51:47.419Z,93917.19
2023-03-10T02:56:52.037Z,93928.00
2023-03-10T03:01:54.348Z,93913.69
2023-03-10T03:06:55.960Z,93920.78
2023-03-10T03:11:57.825Z,93918.50
2023-03-10T03:16:59.707Z,93944.69
2023-03-10T03:22:02.006Z,93982.28
2023-03-10T03:27:05.240Z,93950.38
2023-03-10T03:32:07.439Z,93953.31
2023-03-10T03:37:10.024Z,93980.00
2023-03-10T03:42:13.804Z,93945.13
2023-03-10T03:47:23.537Z,93913.13
2023-03-10T03:52:25.386Z,93898.63
2023-03-10T03:57:28.182Z,93904.81
2023-03-10T04:02:29.863Z,93897.16
2023-03-10T04:07:31.629Z,93897.72
2023-03-10T04:12:34.015Z,93902.31
2023-03-10T04:17:36.347Z,93889.47
2023-03-10T04:22:38.275Z,93872.03
2023-03-10T04:27:41.364Z,93850.09
2023-03-10T04:32:43.805Z,93859.19
2023-03-10T04:37:45.471Z,93837.84
2023-03-10T04:42:48.774Z,93823.75
2023-03-10T04:47:50.680Z,93800.06
2023-03-10T04:52:52.322Z,93786.25
2023-03-10T04:57:58.817Z,93773.06
2023-03-10T05:03:00.606Z,93759.06
2023-03-10T05:08:02.654Z,93747.88
2023-03-10T05:13:05.467Z,93734.50
2023-03-10T05:18:10.428Z,93729.50
2023-03-10T05:23:12.066Z,93725.47
2023-03-10T05:28:13.827Z,93717.47
2023-03-10T05:33:16.524Z,93702.75
2023-03-10T05:38:18.397Z,93696.88
2023-03-10T05:43:20.344Z,93684.13
2023-03-10T05:48:23.581Z,93673.22
2023-03-10T05:53:25.297Z,93674.47
2023-03-10T05:58:27.003Z,93661.59
2023-03-10T06:03:29.298Z,93647.19
2023-03-10T06:08:31.099Z,93646.84
2023-03-10T06:13:32.729Z,93648.09
2023-03-10T06:18:34.835Z,93648.81
2023-03-10T06:23:36.882Z,93632.09
2023-03-10T06:28:40.980Z,93628.75
2023-03-10T06:33:42.768Z,93633.78
2023-03-10T06:38:44.478Z,93624.16
2023-03-10T06:43:46.328Z,93616.38
2023-03-10T06:48:47.931Z,93623.66
2023-03-10T06:53:49.838Z,93655.63
2023-03-10T06:58:51.288Z,93653.06
2023-03-10T07:03:53.688Z,93678.59
2023-03-10T07:08:55.159Z,93690.09
2023-03-10T07:13:56.751Z,93715.81
2023-03-10T07:18:58.206Z,93733.53
2023-03-10T07:23:59.725Z,93767.97
2023-03-10T07:29:01.420Z,93796.16
2023-03-10T07:34:03.066Z,93821.84
2023-03-10T07:39:05.866Z,93833.38
2023-03-10T07:44:07.557Z,93787.53
2023-03-10T07:49:09.205Z,93786.53
2023-03-10T07:54:13.614Z,93800.34
2023-03-10T07:59:15.146Z,93834.00
2023-03-10T08:04:16.816Z,93860.28
2023-03-10T08:09:18.482Z,93878.22
2023-03-10T08:14:21.080Z,93909.97
2023-03-10T08:19:26.974Z,93927.59
2023-03-10T08:24:28.536Z,93918.38
2023-03-10T08:29:30.009Z,93943.34
2023-03-10T08:34:33.551Z,93943.00
2023-03-10T08:39:35.196Z,93941.44
2023-03-10T08:44:36.824Z,93948.63
2023-03-10T08:49:38.371Z,93950.91
2023-03-10T08:54:39.924Z,93945.03
2023-03-10T08:59:41.452Z,93939.47
2023-03-10T09:04:43.481Z,93950.16
2023-03-10T09:09:45.072Z,93931.34
2023-03-10T09:14:47.278Z,93927.31
2023-03-10T09:19:48.747Z,93916.66
2023-03-10T09:24:50.210Z,93907.28
2023-03-10T09:29:51.684Z,93892.56
2023-03-10T09:34:53.551Z,93890.19
2023-03-10T09:39:55.027Z,93880.22
2023-03-10T09:45:13.211Z,93875.94
2023-03-10T09:50:36.496Z,93871.84
2023-03-10T09:55:47.387Z,93872.38
2023-03-10T10:00:49.805Z,93871.84
2023-03-10T10:05:53.150Z,93859.94
2023-03-10T10:10:59.624Z,93858.41
2023-03-10T10:16:33.901Z,93863.22
2023-03-10T10:21:46.679Z,93861.78
2023-03-10T10:26:48.418Z,93886.22
2023-03-10T10:32:02.054Z,93886.94
2023-03-10T10:37:21.909Z,93879.75
2023-03-10T10:42:27.879Z,93888.81
2023-03-10T10:47:32.268Z,93885.00
2023-03-10T10:52:33.794Z,93895.84
2023-03-10T10:57:37.385Z,93913.78
2023-03-10T11:02:38.987Z,93896.00
2023-03-10T11:07:40.647Z,93904.78
2023-03-10T11:13:00.721Z,93906.28
2023-03-10T11:18:33.808Z,93897.13
2023-03-10T11:24:11.993Z,93918.06
2023-03-10T11:29:22.850Z,93905.16
2023-03-10T11:34:29.365Z,93913.28
2023-03-10T11:39:51.111Z,93917.41
2023-03-10T11:45:01.380Z,93920.19
2023-03-10T11:50:18.449Z,93916.09
2023-03-10T11:55:21.561Z,93929.56
2023-03-10T12:00:34.518Z,93929.41
2023-03-10T12:05:56.014Z,93930.88
2023-03-10T12:11:01.133Z,93943.16
2023-03-10T12:16:06.186Z,93943.69
2023-03-10T12:21:28.630Z,93950.78
2023-03-10T12:26:38.923Z,93933.38
2023-03-10T12:31:40.409Z,93930.81
2023-03-10T12:36:45.210Z,93929.31
2023-03-10T12:41:48.096Z,93936.31
2023-03-10T12:46:59.739Z,93956.00
2023-03-10T12:52:06.996Z,93958.75
2023-03-10T12:57:36.389Z,93967.47
2023-03-10T13:02:51.118Z,93949.53
2023-03-10T13:07:57.340Z,93968.44
2023-03-10T13:13:04.272Z,93983.47
2023-03-10T13:18:18.205Z,93975.22
2023-03-10T13:23:34.684Z,93966.41
2023-03-10T13:28:36.339Z,93976.31
2023-03-10T13:33:52.307Z,93981.00
2023-03-10T13:38:54.626Z,93954.78
2023-03-10T13:43:56.188Z,93950.59
2023-03-10T13:49:02.103Z,93943.22
2023-03-10T13:54:32.608Z,93958.63
2023-03-10T13:59:36.030Z,93958.91
2023-03-10T14:04:43.208Z,93961.38
2023-03-10T14:10:03.661Z,93980.66
2023-03-10T14:15:25.333Z,93990.63
2023-03-10T14:20:34.137Z,93978.81
2023-03-10T14:25:35.599Z,94009.16
2023-03-10T14:30:37.129Z,94002.13
2023-03-10T14:35:38.629Z,94008.03
2023-03-10T14:41:00.454Z,94025.13
2023-03-10T14:46:02.176Z,94020.69
2023-03-10T14:51:03.812Z,94026.88
2023-03-10T14:56:05.920Z,94018.91
2023-03-10T15:01:07.458Z,94042.00
2023-03-10T15:06:13.479Z,94063.13
2023-03-10T15:11:17.440Z,94079.63
2023-03-10T15:16:23.027Z,94080.38
2023-03-10T15:21:24.595Z,94103.81
2023-03-10T15:26:26.183Z,94138.50
2023-03-10T15:31:27.794Z,94139.00
2023-03-10T15:36:29.262Z,94112.56
2023-03-10T15:41:34.415Z,94145.50
2023-03-10T15:46:35.975Z,94131.47
2023-03-10T15:51:37.474Z,94133.72
2023-03-10T15:56:39.613Z,94151.66
2023-03-10T16:01:41.291Z,94167.34
2023-03-10T16:06:42.792Z,94152.72
2023-03-10T16:11:44.220Z,94162.78
2023-03-10T16:16:45.702Z,94192.09
2023-03-10T16:21:47.164Z,94204.13
2023-03-10T16:26:48.968Z,94194.13
2023-03-10T16:31:50.557Z,94181.75
2023-03-10T16:36:52.033Z,94191.28
2023-03-10T16:41:53.544Z,94187.53
2023-03-10T16:46:55.085Z,94201.34
2023-03-10T16:51:56.612Z,94176.50
2023-03-10T16:56:58.088Z,94206.91
2023-03-10T17:01:59.582Z,94182.56
2023-03-10T17:07:01.024Z,94188.84
2023-03-10T17:12:02.502Z,94173.72
2023-03-10T17:17:06.532Z,94190.84
2023-03-10T17:22:09.228Z,94191.31
2023-03-10T17:27:10.713Z,94205.97
2023-03-10T17:32:12.573Z,94205.97
2023-03-10T17:37:14.078Z,94217.44
2023-03-10T17:42:15.929Z,94227.47
2023-03-10T17:47:17.443Z,94259.81
2023-03-10T17:52:18.962Z,94225.16
2023-03-10T17:57:20.880Z,94230.22
2023-03-10T18:02:22.455Z,94251.41
2023-03-10T18:07:24.113Z,94238.94
2023-03-10T18:12:25.639Z,94248.28
2023-03-10T18:17:27.151Z,94251.16
2023-03-10T18:22:28.592Z,94249.50
2023-03-10T18:27:33.425Z,94233.56
2023-03-10T18:32:35.020Z,94241.78
2023-03-10T18:37:36.527Z,94236.19
2023-03-10T18:42:38.036Z,94241.66
2023-03-10T18:47:39.567Z,94241.13
2023-03-10T18:52:42.172Z,94273.50
2023-03-10T18:57:44.533Z,94270.41
2023-03-10T19:02:46.191Z,94298.16
2023-03-10T19:07:47.736Z,94354.84
2023-03-10T19:12:49.418Z,94335.94
2023-03-10T19:17:50.971Z,94333.16
2023-03-10T19:22:52.513Z,94331.56
2023-03-10T19:27:53.976Z,94325.03
2023-03-10T19:32:55.450Z,94334.50
2023-03-10T19:37:56.994Z,94361.44
2023-03-10T19:42:58.471Z,94354.81
2023-03-10T19:47:59.984Z,94383.63
2023-03-10T19:53:01.450Z,94434.97
2023-03-10T19:58:02.891Z,94417.44
2023-03-10T20:03:04.528Z,94422.03
2023-03-10T20:08:06.072Z,94433.75
2023-03-10T20:13:07.624Z,94440.03
2023-03-10T20:18:09.126Z,94408.22
2023-03-10T20:23:10.699Z,94427.69
2023-03-10T20:28:13.247Z,94414.78
2023-03-10T20:33:14.708Z,94436.56
2023-03-10T20:38:16.332Z,94471.22
2023-03-10T20:43:18.127Z,94472.59
2023-03-10T20:48:19.621Z,94492.31
2023-03-10T20:53:21.250Z,94509.41
2023-03-10T20:58:22.717Z,94513.41
2023-03-10T21:03:24.221Z,94509.13
2023-03-10T21:08:25.688Z,94507.28
2023-03-10T21:13:27.243Z,94528.06
2023-03-10T21:18:28.692Z,94519.91
2023-03-10T21:23:30.199Z,94515.81
2023-03-10T21:28:42.113Z,94533.44
2023-03-10T21:33:43.616Z,94556.94
2023-03-10T21:38:45.295Z,94560.63
2023-03-10T21:43:46.759Z,94597.47
2023-03-10T21:48:48.233Z,94600.03
2023-03-10T21:53:51.173Z,94645.03
2023-03-10T21:58:52.728Z,94654.53
2023-03-10T22:03:54.636Z,94630.53
2023-03-10T22:08:56.222Z,94639.66
2023-03-10T22:13:57.755Z,94630.25
2023-03-10T22:18:59.270Z,94636.63
2023-03-10T22:24:00.800Z,94650.41
2023-03-10T22:29:02.340Z,94660.88
2023-03-10T22:34:03.923Z,94656.06
2023-03-10T22:39:05.377Z,94642.97
2023-03-10T22:44:07.072Z,94632.63
2023-03-10T22:49:08.568Z,94627.78
2023-03-10T22:54:10.031Z,94637.56
2023-03-10T22:59:11.539Z,94645.59
2023-03-10T23:04:13.067Z,94643.94
2023-03-10T23:09:14.606Z,94638.66
2023-03-10T23:14:16.147Z,94640.88
2023-03-10T23:19:17.591Z,94652.75
2023-03-10T23:24:19.090Z,94652.88
2023-03-10T23:29:20.606Z,94649.72
2023-03-10T23:34:22.152Z,94653.56
2023-03-10T23:39:24.089Z,94638.69
2023-03-10T23:44:25.525Z,94648.47
2023-03-10T23:49:27.077Z,94664.19
2023-03-10T23:54:28.554Z,94655.25
2023-03-10T23:59:30.054Z,94639.63
